sensor_id;sensor_type;location;lat;lon;timestamp;P1;durP1;ratioP1;P2;durP2;ratioP2
56718;SDS011;42597;40.636;0.278;2024-01-30T00:01:35;15.25;;;8.10;;
56718;SDS011;42597;40.636;0.278;2024-01-30T00:04:01;20.23;;;8.80;;
56718;SDS011;42597;40.636;0.278;2024-01-30T00:06:27;14.43;;;7.95;;
56718;SDS011;42597;40.636;0.278;2024-01-30T00:08:53;11.30;;;7.35;;
56718;SDS011;42597;40.636;0.278;2024-01-30T00:11:18;16.63;;;9.57;;
56718;SDS011;42597;40.636;0.278;2024-01-30T00:13:44;13.15;;;9.23;;
56718;SDS011;42597;40.636;0.278;2024-01-30T00:16:19;16.50;;;9.38;;
56718;SDS011;42597;40.636;0.278;2024-01-30T00:18:46;16.90;;;8.65;;
56718;SDS011;42597;40.636;0.278;2024-01-30T00:21:12;14.73;;;9.43;;
56718;SDS011;42597;40.636;0.278;2024-01-30T00:23:38;14.23;;;10.10;;
56718;SDS011;42597;40.636;0.278;2024-01-30T00:26:03;16.77;;;9.38;;
56718;SDS011;42597;40.636;0.278;2024-01-30T00:28:30;15.55;;;8.88;;
56718;SDS011;42597;40.636;0.278;2024-01-30T00:30:56;15.55;;;12.32;;
56718;SDS011;42597;40.636;0.278;2024-01-30T00:33:21;12.82;;;8.90;;
56718;SDS011;42597;40.636;0.278;2024-01-30T00:35:47;16.77;;;10.40;;
56718;SDS011;42597;40.636;0.278;2024-01-30T00:38:13;16.92;;;10.20;;
56718;SDS011;42597;40.636;0.278;2024-01-30T00:40:38;25.52;;;14.00;;
56718;SDS011;42597;40.636;0.278;2024-01-30T00:43:04;13.18;;;9.52;;
56718;SDS011;42597;40.636;0.278;2024-01-30T00:45:29;13.95;;;9.30;;
56718;SDS011;42597;40.636;0.278;2024-01-30T00:47:55;14.27;;;10.02;;
56718;SDS011;42597;40.636;0.278;2024-01-30T00:50:21;21.88;;;13.63;;
56718;SDS011;42597;40.636;0.278;2024-01-30T00:52:47;14.93;;;10.60;;
56718;SDS011;42597;40.636;0.278;2024-01-30T00:55:12;15.63;;;11.27;;
56718;SDS011;42597;40.636;0.278;2024-01-30T00:57:39;18.50;;;11.43;;
56718;SDS011;42597;40.636;0.278;2024-01-30T01:00:05;14.50;;;10.52;;
56718;SDS011;42597;40.636;0.278;2024-01-30T01:02:33;17.02;;;11.75;;
56718;SDS011;42597;40.636;0.278;2024-01-30T01:04:59;15.40;;;9.68;;
56718;SDS011;42597;40.636;0.278;2024-01-30T01:07:25;22.05;;;9.82;;
56718;SDS011;42597;40.636;0.278;2024-01-30T01:09:51;15.27;;;9.35;;
56718;SDS011;42597;40.636;0.278;2024-01-30T01:12:16;11.00;;;7.32;;
56718;SDS011;42597;40.636;0.278;2024-01-30T01:14:42;13.27;;;7.82;;
56718;SDS011;42597;40.636;0.278;2024-01-30T01:17:08;10.23;;;6.93;;
56718;SDS011;42597;40.636;0.278;2024-01-30T01:19:33;8.35;;;5.97;;
56718;SDS011;42597;40.636;0.278;2024-01-30T01:21:59;8.35;;;5.85;;
56718;SDS011;42597;40.636;0.278;2024-01-30T01:24:24;12.90;;;7.43;;
56718;SDS011;42597;40.636;0.278;2024-01-30T01:26:50;9.13;;;7.15;;
56718;SDS011;42597;40.636;0.278;2024-01-30T01:29:16;10.13;;;6.45;;
56718;SDS011;42597;40.636;0.278;2024-01-30T01:31:41;8.68;;;6.53;;
56718;SDS011;42597;40.636;0.278;2024-01-30T01:34:12;12.15;;;7.72;;
56718;SDS011;42597;40.636;0.278;2024-01-30T01:36:38;12.57;;;7.60;;
56718;SDS011;42597;40.636;0.278;2024-01-30T01:39:04;10.55;;;7.25;;
56718;SDS011;42597;40.636;0.278;2024-01-30T01:41:31;11.98;;;8.10;;
56718;SDS011;42597;40.636;0.278;2024-01-30T01:43:57;9.80;;;5.63;;
56718;SDS011;42597;40.636;0.278;2024-01-30T01:46:23;12.02;;;5.00;;
56718;SDS011;42597;40.636;0.278;2024-01-30T01:48:50;8.77;;;6.40;;
56718;SDS011;42597;40.636;0.278;2024-01-30T01:51:15;10.55;;;5.88;;
56718;SDS011;42597;40.636;0.278;2024-01-30T01:53:44;11.43;;;7.15;;
56718;SDS011;42597;40.636;0.278;2024-01-30T01:56:10;8.63;;;6.13;;
56718;SDS011;42597;40.636;0.278;2024-01-30T01:58:36;16.30;;;7.10;;
56718;SDS011;42597;40.636;0.278;2024-01-30T02:01:02;15.93;;;7.38;;
56718;SDS011;42597;40.636;0.278;2024-01-30T02:03:30;9.75;;;7.60;;
56718;SDS011;42597;40.636;0.278;2024-01-30T02:05:56;10.35;;;7.45;;
56718;SDS011;42597;40.636;0.278;2024-01-30T02:08:22;18.75;;;9.10;;
56718;SDS011;42597;40.636;0.278;2024-01-30T02:10:49;13.52;;;8.50;;
56718;SDS011;42597;40.636;0.278;2024-01-30T02:13:14;15.98;;;8.10;;
56718;SDS011;42597;40.636;0.278;2024-01-30T02:15:40;10.20;;;7.28;;
56718;SDS011;42597;40.636;0.278;2024-01-30T02:18:05;9.85;;;6.70;;
56718;SDS011;42597;40.636;0.278;2024-01-30T02:20:31;9.43;;;7.55;;
56718;SDS011;42597;40.636;0.278;2024-01-30T02:23:00;12.80;;;8.07;;
56718;SDS011;42597;40.636;0.278;2024-01-30T02:25:40;12.43;;;7.47;;
56718;SDS011;42597;40.636;0.278;2024-01-30T02:28:25;10.43;;;7.22;;
56718;SDS011;42597;40.636;0.278;2024-01-30T02:30:52;14.07;;;7.25;;
56718;SDS011;42597;40.636;0.278;2024-01-30T02:33:18;12.40;;;7.40;;
56718;SDS011;42597;40.636;0.278;2024-01-30T02:35:44;12.20;;;7.53;;
56718;SDS011;42597;40.636;0.278;2024-01-30T02:38:09;11.93;;;7.63;;
56718;SDS011;42597;40.636;0.278;2024-01-30T02:40:35;11.70;;;8.00;;
56718;SDS011;42597;40.636;0.278;2024-01-30T02:43:01;10.90;;;7.38;;
56718;SDS011;42597;40.636;0.278;2024-01-30T02:45:28;10.15;;;6.80;;
56718;SDS011;42597;40.636;0.278;2024-01-30T02:47:54;16.05;;;7.30;;
56718;SDS011;42597;40.636;0.278;2024-01-30T02:50:19;15.68;;;7.32;;
56718;SDS011;42597;40.636;0.278;2024-01-30T02:52:45;11.35;;;7.00;;
56718;SDS011;42597;40.636;0.278;2024-01-30T02:55:11;14.50;;;8.38;;
56718;SDS011;42597;40.636;0.278;2024-01-30T02:57:40;19.38;;;8.45;;
56718;SDS011;42597;40.636;0.278;2024-01-30T03:00:06;16.42;;;7.82;;
56718;SDS011;42597;40.636;0.278;2024-01-30T03:02:34;13.75;;;7.60;;
56718;SDS011;42597;40.636;0.278;2024-01-30T03:05:00;12.27;;;8.57;;
56718;SDS011;42597;40.636;0.278;2024-01-30T03:07:26;13.43;;;8.45;;
56718;SDS011;42597;40.636;0.278;2024-01-30T03:09:52;19.38;;;7.88;;
56718;SDS011;42597;40.636;0.278;2024-01-30T03:12:17;12.90;;;8.32;;
56718;SDS011;42597;40.636;0.278;2024-01-30T03:14:43;11.77;;;7.30;;
56718;SDS011;42597;40.636;0.278;2024-01-30T03:17:08;13.77;;;7.00;;
56718;SDS011;42597;40.636;0.278;2024-01-30T03:19:34;13.40;;;7.05;;
56718;SDS011;42597;40.636;0.278;2024-01-30T03:22:00;12.25;;;8.05;;
56718;SDS011;42597;40.636;0.278;2024-01-30T03:24:25;10.32;;;6.50;;
56718;SDS011;42597;40.636;0.278;2024-01-30T03:26:51;11.02;;;8.20;;
56718;SDS011;42597;40.636;0.278;2024-01-30T03:29:17;16.98;;;9.07;;
56718;SDS011;42597;40.636;0.278;2024-01-30T03:31:43;20.60;;;8.40;;
56718;SDS011;42597;40.636;0.278;2024-01-30T03:34:08;18.65;;;8.00;;
56718;SDS011;42597;40.636;0.278;2024-01-30T03:36:34;12.55;;;7.55;;
56718;SDS011;42597;40.636;0.278;2024-01-30T03:39:00;12.30;;;8.13;;
56718;SDS011;42597;40.636;0.278;2024-01-30T03:41:26;20.58;;;7.82;;
56718;SDS011;42597;40.636;0.278;2024-01-30T03:43:51;14.18;;;8.05;;
56718;SDS011;42597;40.636;0.278;2024-01-30T03:46:17;15.85;;;8.55;;
56718;SDS011;42597;40.636;0.278;2024-01-30T03:48:43;13.95;;;7.45;;
56718;SDS011;42597;40.636;0.278;2024-01-30T03:51:09;22.55;;;9.68;;
56718;SDS011;42597;40.636;0.278;2024-01-30T03:53:39;12.85;;;8.18;;
56718;SDS011;42597;40.636;0.278;2024-01-30T03:56:06;14.70;;;7.82;;
56718;SDS011;42597;40.636;0.278;2024-01-30T03:58:32;11.00;;;8.45;;
56718;SDS011;42597;40.636;0.278;2024-01-30T04:00:57;19.50;;;8.68;;
56718;SDS011;42597;40.636;0.278;2024-01-30T04:03:23;16.73;;;8.80;;
56718;SDS011;42597;40.636;0.278;2024-01-30T04:05:48;13.40;;;9.70;;
56718;SDS011;42597;40.636;0.278;2024-01-30T04:08:14;15.55;;;7.65;;
56718;SDS011;42597;40.636;0.278;2024-01-30T04:10:39;13.25;;;7.50;;
56718;SDS011;42597;40.636;0.278;2024-01-30T04:13:05;12.45;;;8.55;;
56718;SDS011;42597;40.636;0.278;2024-01-30T04:15:31;13.50;;;7.88;;
56718;SDS011;42597;40.636;0.278;2024-01-30T04:17:58;21.73;;;8.02;;
56718;SDS011;42597;40.636;0.278;2024-01-30T04:20:24;13.40;;;7.07;;
56718;SDS011;42597;40.636;0.278;2024-01-30T04:22:50;12.93;;;8.02;;
56718;SDS011;42597;40.636;0.278;2024-01-30T04:25:16;11.50;;;7.40;;
56718;SDS011;42597;40.636;0.278;2024-01-30T04:27:41;22.38;;;9.10;;
56718;SDS011;42597;40.636;0.278;2024-01-30T04:30:08;14.88;;;8.02;;
56718;SDS011;42597;40.636;0.278;2024-01-30T04:32:34;16.92;;;8.73;;
56718;SDS011;42597;40.636;0.278;2024-01-30T04:35:00;12.65;;;8.50;;
56718;SDS011;42597;40.636;0.278;2024-01-30T04:37:26;18.83;;;9.32;;
56718;SDS011;42597;40.636;0.278;2024-01-30T04:39:52;20.02;;;8.73;;
56718;SDS011;42597;40.636;0.278;2024-01-30T04:42:18;15.80;;;7.70;;
56718;SDS011;42597;40.636;0.278;2024-01-30T04:44:43;21.80;;;7.78;;
56718;SDS011;42597;40.636;0.278;2024-01-30T04:47:09;13.75;;;8.57;;
56718;SDS011;42597;40.636;0.278;2024-01-30T04:49:37;11.45;;;7.18;;
56718;SDS011;42597;40.636;0.278;2024-01-30T04:52:05;14.02;;;7.22;;
56718;SDS011;42597;40.636;0.278;2024-01-30T04:54:31;11.57;;;7.45;;
56718;SDS011;42597;40.636;0.278;2024-01-30T04:56:57;11.45;;;8.43;;
56718;SDS011;42597;40.636;0.278;2024-01-30T04:59:23;22.23;;;9.07;;
56718;SDS011;42597;40.636;0.278;2024-01-30T05:01:49;19.77;;;8.52;;
56718;SDS011;42597;40.636;0.278;2024-01-30T05:04:14;19.02;;;9.23;;
56718;SDS011;42597;40.636;0.278;2024-01-30T05:06:40;13.43;;;9.52;;
56718;SDS011;42597;40.636;0.278;2024-01-30T05:09:05;18.83;;;9.95;;
56718;SDS011;42597;40.636;0.278;2024-01-30T05:11:31;19.17;;;10.38;;
56718;SDS011;42597;40.636;0.278;2024-01-30T05:14:01;22.02;;;11.23;;
56718;SDS011;42597;40.636;0.278;2024-01-30T05:16:27;16.83;;;11.13;;
56718;SDS011;42597;40.636;0.278;2024-01-30T05:18:53;22.75;;;11.23;;
56718;SDS011;42597;40.636;0.278;2024-01-30T05:21:18;20.58;;;12.43;;
56718;SDS011;42597;40.636;0.278;2024-01-30T05:23:44;23.65;;;12.18;;
56718;SDS011;42597;40.636;0.278;2024-01-30T05:26:09;32.95;;;14.20;;
56718;SDS011;42597;40.636;0.278;2024-01-30T05:28:35;23.38;;;13.55;;
56718;SDS011;42597;40.636;0.278;2024-01-30T05:31:01;16.00;;;10.15;;
56718;SDS011;42597;40.636;0.278;2024-01-30T05:33:27;25.80;;;12.70;;
56718;SDS011;42597;40.636;0.278;2024-01-30T05:35:53;16.63;;;11.10;;
56718;SDS011;42597;40.636;0.278;2024-01-30T05:38:19;19.83;;;12.25;;
56718;SDS011;42597;40.636;0.278;2024-01-30T05:40:45;18.92;;;10.55;;
56718;SDS011;42597;40.636;0.278;2024-01-30T05:43:11;16.88;;;10.00;;
56718;SDS011;42597;40.636;0.278;2024-01-30T05:45:36;17.02;;;10.77;;
56718;SDS011;42597;40.636;0.278;2024-01-30T05:48:02;18.65;;;11.35;;
56718;SDS011;42597;40.636;0.278;2024-01-30T05:50:28;21.63;;;11.65;;
56718;SDS011;42597;40.636;0.278;2024-01-30T05:52:54;10.88;;;8.45;;
56718;SDS011;42597;40.636;0.278;2024-01-30T05:55:19;15.90;;;9.35;;
56718;SDS011;42597;40.636;0.278;2024-01-30T05:57:45;16.55;;;10.93;;
56718;SDS011;42597;40.636;0.278;2024-01-30T06:00:10;18.50;;;11.73;;
56718;SDS011;42597;40.636;0.278;2024-01-30T06:02:36;19.38;;;12.88;;
56718;SDS011;42597;40.636;0.278;2024-01-30T06:05:02;20.75;;;11.52;;
56718;SDS011;42597;40.636;0.278;2024-01-30T06:07:28;21.98;;;11.15;;
56718;SDS011;42597;40.636;0.278;2024-01-30T06:09:53;13.82;;;9.50;;
56718;SDS011;42597;40.636;0.278;2024-01-30T06:12:19;9.43;;;7.95;;
56718;SDS011;42597;40.636;0.278;2024-01-30T06:14:45;18.20;;;9.20;;
56718;SDS011;42597;40.636;0.278;2024-01-30T06:17:10;20.48;;;12.13;;
56718;SDS011;42597;40.636;0.278;2024-01-30T06:19:37;19.92;;;12.75;;
56718;SDS011;42597;40.636;0.278;2024-01-30T06:22:04;15.88;;;12.43;;
56718;SDS011;42597;40.636;0.278;2024-01-30T06:24:30;22.75;;;15.02;;
56718;SDS011;42597;40.636;0.278;2024-01-30T06:26:55;37.90;;;14.73;;
56718;SDS011;42597;40.636;0.278;2024-01-30T06:29:21;32.85;;;18.20;;
56718;SDS011;42597;40.636;0.278;2024-01-30T06:31:47;20.27;;;16.38;;
56718;SDS011;42597;40.636;0.278;2024-01-30T06:34:12;26.92;;;17.30;;
56718;SDS011;42597;40.636;0.278;2024-01-30T06:36:38;30.17;;;17.83;;
56718;SDS011;42597;40.636;0.278;2024-01-30T06:39:04;29.77;;;17.33;;
56718;SDS011;42597;40.636;0.278;2024-01-30T06:41:30;28.02;;;18.52;;
56718;SDS011;42597;40.636;0.278;2024-01-30T06:43:56;27.80;;;18.58;;
56718;SDS011;42597;40.636;0.278;2024-01-30T06:46:22;29.67;;;18.90;;
56718;SDS011;42597;40.636;0.278;2024-01-30T06:48:48;26.60;;;17.13;;
56718;SDS011;42597;40.636;0.278;2024-01-30T06:51:13;29.17;;;17.92;;
56718;SDS011;42597;40.636;0.278;2024-01-30T06:53:39;27.42;;;17.83;;
56718;SDS011;42597;40.636;0.278;2024-01-30T06:56:05;32.72;;;18.40;;
56718;SDS011;42597;40.636;0.278;2024-01-30T06:58:31;28.15;;;17.80;;
56718;SDS011;42597;40.636;0.278;2024-01-30T07:00:57;27.80;;;16.73;;
56718;SDS011;42597;40.636;0.278;2024-01-30T07:03:23;25.45;;;18.08;;
56718;SDS011;42597;40.636;0.278;2024-01-30T07:05:49;27.25;;;16.92;;
56718;SDS011;42597;40.636;0.278;2024-01-30T07:08:15;24.10;;;17.98;;
56718;SDS011;42597;40.636;0.278;2024-01-30T07:10:42;26.17;;;15.27;;
56718;SDS011;42597;40.636;0.278;2024-01-30T07:13:09;19.38;;;14.88;;
56718;SDS011;42597;40.636;0.278;2024-01-30T07:15:35;22.60;;;15.10;;
56718;SDS011;42597;40.636;0.278;2024-01-30T07:18:02;28.98;;;15.65;;
56718;SDS011;42597;40.636;0.278;2024-01-30T07:20:28;28.20;;;16.17;;
56718;SDS011;42597;40.636;0.278;2024-01-30T07:22:55;23.80;;;17.77;;
56718;SDS011;42597;40.636;0.278;2024-01-30T07:25:21;21.35;;;16.48;;
56718;SDS011;42597;40.636;0.278;2024-01-30T07:27:46;22.48;;;14.00;;
56718;SDS011;42597;40.636;0.278;2024-01-30T07:30:12;25.65;;;16.67;;
56718;SDS011;42597;40.636;0.278;2024-01-30T07:32:38;27.13;;;17.80;;
56718;SDS011;42597;40.636;0.278;2024-01-30T07:35:03;33.05;;;14.20;;
56718;SDS011;42597;40.636;0.278;2024-01-30T07:37:29;32.03;;;17.73;;
56718;SDS011;42597;40.636;0.278;2024-01-30T07:39:55;31.13;;;17.65;;
56718;SDS011;42597;40.636;0.278;2024-01-30T07:42:20;23.17;;;16.00;;
56718;SDS011;42597;40.636;0.278;2024-01-30T07:44:46;28.38;;;18.73;;
56718;SDS011;42597;40.636;0.278;2024-01-30T07:47:12;31.88;;;20.38;;
56718;SDS011;42597;40.636;0.278;2024-01-30T07:49:40;31.08;;;19.80;;
56718;SDS011;42597;40.636;0.278;2024-01-30T07:52:06;31.85;;;16.85;;
56718;SDS011;42597;40.636;0.278;2024-01-30T07:54:32;34.15;;;17.48;;
56718;SDS011;42597;40.636;0.278;2024-01-30T07:57:04;23.42;;;16.15;;
56718;SDS011;42597;40.636;0.278;2024-01-30T07:59:29;31.08;;;14.55;;
56718;SDS011;42597;40.636;0.278;2024-01-30T08:01:55;27.25;;;15.68;;
56718;SDS011;42597;40.636;0.278;2024-01-30T08:04:20;37.63;;;16.02;;
56718;SDS011;42597;40.636;0.278;2024-01-30T08:06:46;27.00;;;16.80;;
56718;SDS011;42597;40.636;0.278;2024-01-30T08:09:12;29.27;;;15.48;;
56718;SDS011;42597;40.636;0.278;2024-01-30T08:11:37;29.13;;;16.02;;
56718;SDS011;42597;40.636;0.278;2024-01-30T08:14:03;35.88;;;19.13;;
56718;SDS011;42597;40.636;0.278;2024-01-30T08:16:28;27.17;;;18.63;;
56718;SDS011;42597;40.636;0.278;2024-01-30T08:18:54;32.83;;;19.60;;
56718;SDS011;42597;40.636;0.278;2024-01-30T08:21:22;31.33;;;17.37;;
56718;SDS011;42597;40.636;0.278;2024-01-30T08:23:48;25.25;;;17.60;;
56718;SDS011;42597;40.636;0.278;2024-01-30T08:26:13;25.63;;;16.35;;
56718;SDS011;42597;40.636;0.278;2024-01-30T08:28:39;33.03;;;19.10;;
56718;SDS011;42597;40.636;0.278;2024-01-30T08:31:05;28.73;;;17.45;;
56718;SDS011;42597;40.636;0.278;2024-01-30T08:33:30;38.00;;;20.92;;
56718;SDS011;42597;40.636;0.278;2024-01-30T08:35:56;28.90;;;19.08;;
56718;SDS011;42597;40.636;0.278;2024-01-30T08:38:21;27.13;;;18.48;;
56718;SDS011;42597;40.636;0.278;2024-01-30T08:40:47;35.20;;;22.33;;
56718;SDS011;42597;40.636;0.278;2024-01-30T08:43:12;31.65;;;17.20;;
56718;SDS011;42597;40.636;0.278;2024-01-30T08:45:38;22.42;;;17.00;;
56718;SDS011;42597;40.636;0.278;2024-01-30T08:48:04;22.75;;;17.48;;
56718;SDS011;42597;40.636;0.278;2024-01-30T08:50:29;30.48;;;17.65;;
56718;SDS011;42597;40.636;0.278;2024-01-30T08:52:55;28.85;;;15.48;;
56718;SDS011;42597;40.636;0.278;2024-01-30T08:55:22;24.77;;;16.23;;
56718;SDS011;42597;40.636;0.278;2024-01-30T08:57:47;29.13;;;15.80;;
56718;SDS011;42597;40.636;0.278;2024-01-30T09:00:13;22.90;;;16.50;;
56718;SDS011;42597;40.636;0.278;2024-01-30T09:02:39;20.80;;;15.75;;
56718;SDS011;42597;40.636;0.278;2024-01-30T09:05:05;23.67;;;15.23;;
56718;SDS011;42597;40.636;0.278;2024-01-30T09:07:31;24.25;;;17.10;;
56718;SDS011;42597;40.636;0.278;2024-01-30T09:09:56;25.40;;;16.48;;
56718;SDS011;42597;40.636;0.278;2024-01-30T09:12:22;16.73;;;13.50;;
56718;SDS011;42597;40.636;0.278;2024-01-30T09:14:48;28.02;;;15.20;;
56718;SDS011;42597;40.636;0.278;2024-01-30T09:17:13;16.88;;;12.60;;
56718;SDS011;42597;40.636;0.278;2024-01-30T09:19:40;20.17;;;13.23;;
56718;SDS011;42597;40.636;0.278;2024-01-30T09:22:05;25.60;;;12.98;;
56718;SDS011;42597;40.636;0.278;2024-01-30T09:24:31;21.85;;;13.95;;
56718;SDS011;42597;40.636;0.278;2024-01-30T09:26:57;25.30;;;13.63;;
56718;SDS011;42597;40.636;0.278;2024-01-30T09:29:22;18.13;;;11.68;;
56718;SDS011;42597;40.636;0.278;2024-01-30T09:31:48;18.63;;;12.07;;
56718;SDS011;42597;40.636;0.278;2024-01-30T09:34:14;21.13;;;10.90;;
56718;SDS011;42597;40.636;0.278;2024-01-30T09:36:39;19.45;;;10.32;;
56718;SDS011;42597;40.636;0.278;2024-01-30T09:39:05;15.77;;;7.43;;
56718;SDS011;42597;40.636;0.278;2024-01-30T09:41:46;19.98;;;7.80;;
56718;SDS011;42597;40.636;0.278;2024-01-30T09:44:18;16.92;;;9.00;;
56718;SDS011;42597;40.636;0.278;2024-01-30T09:46:46;14.32;;;8.25;;
56718;SDS011;42597;40.636;0.278;2024-01-30T09:49:13;16.35;;;8.80;;
56718;SDS011;42597;40.636;0.278;2024-01-30T09:51:39;17.27;;;9.73;;
56718;SDS011;42597;40.636;0.278;2024-01-30T09:54:05;24.80;;;10.02;;
56718;SDS011;42597;40.636;0.278;2024-01-30T09:56:33;23.13;;;9.38;;
56718;SDS011;42597;40.636;0.278;2024-01-30T09:58:59;14.88;;;8.65;;
56718;SDS011;42597;40.636;0.278;2024-01-30T10:01:24;14.88;;;8.00;;
56718;SDS011;42597;40.636;0.278;2024-01-30T10:03:50;15.80;;;7.95;;
56718;SDS011;42597;40.636;0.278;2024-01-30T10:06:19;15.63;;;8.40;;
56718;SDS011;42597;40.636;0.278;2024-01-30T10:08:46;17.73;;;9.30;;
56718;SDS011;42597;40.636;0.278;2024-01-30T10:11:11;16.42;;;7.13;;
56718;SDS011;42597;40.636;0.278;2024-01-30T10:13:38;16.48;;;7.20;;
56718;SDS011;42597;40.636;0.278;2024-01-30T10:16:04;15.20;;;7.10;;
56718;SDS011;42597;40.636;0.278;2024-01-30T10:18:31;13.32;;;7.53;;
56718;SDS011;42597;40.636;0.278;2024-01-30T10:20:58;19.70;;;8.98;;
56718;SDS011;42597;40.636;0.278;2024-01-30T10:23:24;13.65;;;7.38;;
56718;SDS011;42597;40.636;0.278;2024-01-30T10:25:53;13.50;;;7.75;;
56718;SDS011;42597;40.636;0.278;2024-01-30T10:28:19;10.35;;;6.10;;
56718;SDS011;42597;40.636;0.278;2024-01-30T10:30:45;14.68;;;9.13;;
56718;SDS011;42597;40.636;0.278;2024-01-30T10:33:10;17.42;;;7.78;;
56718;SDS011;42597;40.636;0.278;2024-01-30T10:35:36;16.00;;;9.93;;
56718;SDS011;42597;40.636;0.278;2024-01-30T10:38:02;18.67;;;9.55;;
56718;SDS011;42597;40.636;0.278;2024-01-30T10:40:30;15.15;;;9.20;;
56718;SDS011;42597;40.636;0.278;2024-01-30T10:42:58;13.55;;;8.52;;
56718;SDS011;42597;40.636;0.278;2024-01-30T10:45:26;24.35;;;9.68;;
56718;SDS011;42597;40.636;0.278;2024-01-30T10:47:54;15.48;;;8.30;;
56718;SDS011;42597;40.636;0.278;2024-01-30T10:50:24;16.88;;;7.65;;
56718;SDS011;42597;40.636;0.278;2024-01-30T10:52:50;17.02;;;7.10;;
56718;SDS011;42597;40.636;0.278;2024-01-30T10:55:17;14.98;;;7.30;;
56718;SDS011;42597;40.636;0.278;2024-01-30T10:57:44;17.60;;;7.50;;
56718;SDS011;42597;40.636;0.278;2024-01-30T11:00:13;20.27;;;6.75;;
56718;SDS011;42597;40.636;0.278;2024-01-30T11:02:44;14.73;;;8.90;;
56718;SDS011;42597;40.636;0.278;2024-01-30T11:05:12;18.42;;;7.60;;
56718;SDS011;42597;40.636;0.278;2024-01-30T11:07:38;26.67;;;9.63;;
56718;SDS011;42597;40.636;0.278;2024-01-30T11:10:06;22.05;;;8.52;;
56718;SDS011;42597;40.636;0.278;2024-01-30T11:12:37;15.20;;;8.27;;
56718;SDS011;42597;40.636;0.278;2024-01-30T11:15:18;17.55;;;8.00;;
56718;SDS011;42597;40.636;0.278;2024-01-30T11:20:27;16.70;;;8.68;;
56718;SDS011;42597;40.636;0.278;2024-01-30T11:22:56;16.30;;;7.47;;
56718;SDS011;42597;40.636;0.278;2024-01-30T11:25:23;14.77;;;7.95;;
56718;SDS011;42597;40.636;0.278;2024-01-30T11:27:49;17.85;;;8.70;;
56718;SDS011;42597;40.636;0.278;2024-01-30T11:30:30;17.55;;;10.55;;
56718;SDS011;42597;40.636;0.278;2024-01-30T11:35:37;17.67;;;9.85;;
56718;SDS011;42597;40.636;0.278;2024-01-30T11:38:10;19.67;;;10.95;;
56718;SDS011;42597;40.636;0.278;2024-01-30T11:40:38;18.25;;;10.63;;
56718;SDS011;42597;40.636;0.278;2024-01-30T11:43:05;19.80;;;11.10;;
56718;SDS011;42597;40.636;0.278;2024-01-30T11:45:31;13.95;;;8.38;;
56718;SDS011;42597;40.636;0.278;2024-01-30T11:47:58;19.75;;;11.48;;
56718;SDS011;42597;40.636;0.278;2024-01-30T11:50:32;18.63;;;9.27;;
56718;SDS011;42597;40.636;0.278;2024-01-30T11:53:01;21.05;;;10.15;;
56718;SDS011;42597;40.636;0.278;2024-01-30T11:55:28;25.17;;;11.80;;
56718;SDS011;42597;40.636;0.278;2024-01-30T11:57:55;20.25;;;9.40;;
56718;SDS011;42597;40.636;0.278;2024-01-30T12:00:24;20.35;;;10.35;;
56718;SDS011;42597;40.636;0.278;2024-01-30T12:02:50;18.13;;;9.27;;
56718;SDS011;42597;40.636;0.278;2024-01-30T12:05:20;16.67;;;9.95;;
56718;SDS011;42597;40.636;0.278;2024-01-30T12:07:47;16.77;;;8.88;;
56718;SDS011;42597;40.636;0.278;2024-01-30T12:10:13;14.30;;;7.65;;
56718;SDS011;42597;40.636;0.278;2024-01-30T12:12:39;13.60;;;8.73;;
56718;SDS011;42597;40.636;0.278;2024-01-30T12:15:07;20.15;;;9.30;;
56718;SDS011;42597;40.636;0.278;2024-01-30T12:17:33;12.93;;;8.88;;
56718;SDS011;42597;40.636;0.278;2024-01-30T12:20:12;17.23;;;9.93;;
56718;SDS011;42597;40.636;0.278;2024-01-30T12:22:42;19.73;;;9.43;;
56718;SDS011;42597;40.636;0.278;2024-01-30T12:27:53;16.20;;;9.20;;
56718;SDS011;42597;40.636;0.278;2024-01-30T12:30:19;19.13;;;10.45;;
56718;SDS011;42597;40.636;0.278;2024-01-30T12:32:47;21.15;;;12.90;;
56718;SDS011;42597;40.636;0.278;2024-01-30T12:35:16;21.98;;;12.95;;
56718;SDS011;42597;40.636;0.278;2024-01-30T12:37:43;18.60;;;11.18;;
56718;SDS011;42597;40.636;0.278;2024-01-30T12:40:10;17.52;;;11.73;;
56718;SDS011;42597;40.636;0.278;2024-01-30T12:42:38;22.70;;;12.35;;
56718;SDS011;42597;40.636;0.278;2024-01-30T12:45:04;25.30;;;13.05;;
56718;SDS011;42597;40.636;0.278;2024-01-30T12:47:31;18.25;;;10.82;;
56718;SDS011;42597;40.636;0.278;2024-01-30T12:49:57;15.88;;;9.82;;
56718;SDS011;42597;40.636;0.278;2024-01-30T12:52:23;25.67;;;13.88;;
56718;SDS011;42597;40.636;0.278;2024-01-30T12:54:49;18.92;;;10.57;;
56718;SDS011;42597;40.636;0.278;2024-01-30T12:57:15;16.15;;;9.65;;
56718;SDS011;42597;40.636;0.278;2024-01-30T12:59:42;22.77;;;10.85;;
56718;SDS011;42597;40.636;0.278;2024-01-30T13:02:08;19.08;;;8.48;;
56718;SDS011;42597;40.636;0.278;2024-01-30T13:04:34;21.20;;;10.13;;
56718;SDS011;42597;40.636;0.278;2024-01-30T13:07:00;20.00;;;8.48;;
56718;SDS011;42597;40.636;0.278;2024-01-30T13:09:26;24.20;;;8.65;;
56718;SDS011;42597;40.636;0.278;2024-01-30T13:11:52;15.35;;;7.85;;
56718;SDS011;42597;40.636;0.278;2024-01-30T13:14:18;11.18;;;7.47;;
56718;SDS011;42597;40.636;0.278;2024-01-30T13:16:44;12.15;;;7.65;;
56718;SDS011;42597;40.636;0.278;2024-01-30T13:19:10;21.67;;;8.82;;
56718;SDS011;42597;40.636;0.278;2024-01-30T13:21:36;15.00;;;7.45;;
56718;SDS011;42597;40.636;0.278;2024-01-30T13:24:01;16.52;;;7.65;;
56718;SDS011;42597;40.636;0.278;2024-01-30T13:26:27;14.95;;;8.73;;
56718;SDS011;42597;40.636;0.278;2024-01-30T13:28:54;23.65;;;9.45;;
56718;SDS011;42597;40.636;0.278;2024-01-30T13:31:20;20.80;;;9.43;;
56718;SDS011;42597;40.636;0.278;2024-01-30T13:33:45;19.90;;;8.88;;
56718;SDS011;42597;40.636;0.278;2024-01-30T13:36:11;24.52;;;12.60;;
56718;SDS011;42597;40.636;0.278;2024-01-30T13:38:37;18.50;;;9.10;;
56718;SDS011;42597;40.636;0.278;2024-01-30T13:41:04;19.60;;;9.10;;
56718;SDS011;42597;40.636;0.278;2024-01-30T13:43:30;21.77;;;9.13;;
56718;SDS011;42597;40.636;0.278;2024-01-30T13:45:55;19.52;;;9.65;;
56718;SDS011;42597;40.636;0.278;2024-01-30T13:48:21;38.55;;;11.13;;
56718;SDS011;42597;40.636;0.278;2024-01-30T13:50:47;23.05;;;9.50;;
56718;SDS011;42597;40.636;0.278;2024-01-30T13:53:13;20.02;;;11.13;;
56718;SDS011;42597;40.636;0.278;2024-01-30T13:55:39;13.50;;;8.27;;
56718;SDS011;42597;40.636;0.278;2024-01-30T13:58:05;17.73;;;7.63;;
56718;SDS011;42597;40.636;0.278;2024-01-30T14:00:33;22.13;;;7.88;;
56718;SDS011;42597;40.636;0.278;2024-01-30T14:02:59;19.85;;;7.82;;
56718;SDS011;42597;40.636;0.278;2024-01-30T14:05:25;22.85;;;7.82;;
56718;SDS011;42597;40.636;0.278;2024-01-30T14:07:53;27.40;;;10.55;;
56718;SDS011;42597;40.636;0.278;2024-01-30T14:10:19;15.13;;;8.73;;
56718;SDS011;42597;40.636;0.278;2024-01-30T14:12:45;18.13;;;7.57;;
56718;SDS011;42597;40.636;0.278;2024-01-30T14:15:12;20.67;;;10.57;;
56718;SDS011;42597;40.636;0.278;2024-01-30T14:17:38;25.30;;;13.07;;
56718;SDS011;42597;40.636;0.278;2024-01-30T14:20:03;16.92;;;10.88;;
56718;SDS011;42597;40.636;0.278;2024-01-30T14:22:30;20.15;;;10.40;;
56718;SDS011;42597;40.636;0.278;2024-01-30T14:24:56;18.58;;;10.27;;
56718;SDS011;42597;40.636;0.278;2024-01-30T14:27:22;18.30;;;10.23;;
56718;SDS011;42597;40.636;0.278;2024-01-30T14:29:47;27.85;;;12.85;;
56718;SDS011;42597;40.636;0.278;2024-01-30T14:32:13;18.45;;;8.27;;